Terminal Aerodrome Forecast
Issued by NWS

Home | Current Version | Previous Version | Text Only | Print | Product List | Glossary On
Versions: 1 2 3 4 5 6 7 8 9 10 11 12 13 14
660
FTPA31 PHFO 241219 AAA
TAFHJR
TAF AMD
PHJR 241219Z 2412/2512 VRB06KT 6SM -SHRA VCTS SCT025CB BKN035
      OVC050
      TEMPO 2412/2415 4SM SHRA BKN025 OVC040
     FM241600 17010KT P6SM VCSH FEW025 BKN050
      TEMPO 2416/2420 5SM -SHRA SCT025 BKN040
     FM250400 08009KT P6SM SCT025 SCT050=

USA.gov is the U.S. government's official web portal to all federal, state and local government web resources and services.